createdAt,value
2022-09-12T00:01:51.064Z,16.30
2022-09-12T00:04:17.964Z,16.30
2022-09-12T00:06:45.158Z,16.30
2022-09-12T00:09:14.379Z,16.20
2022-09-12T00:11:43.458Z,16.20
2022-09-12T00:14:12.583Z,16.20
2022-09-12T00:16:39.462Z,16.20
2022-09-12T00:19:10.175Z,16.20
2022-09-12T00:21:39.473Z,16.10
2022-09-12T00:24:07.262Z,16.10
2022-09-12T00:26:34.001Z,16.10
2022-09-12T00:29:00.878Z,16.10
2022-09-12T00:31:28.093Z,16.10
2022-09-12T00:33:56.969Z,16.00
2022-09-12T00:36:25.683Z,16.10
2022-09-12T00:38:53.459Z,16.00
2022-09-12T00:41:26.669Z,16.00
2022-09-12T00:43:56.680Z,16.00
2022-09-12T00:46:33.106Z,16.00
2022-09-12T00:49:11.558Z,16.00
2022-09-12T00:51:39.556Z,15.90
2022-09-12T00:54:13.141Z,15.90
2022-09-12T00:56:43.838Z,15.90
2022-09-12T00:59:39.811Z,15.90
2022-09-12T01:02:07.389Z,15.90
2022-09-12T01:04:37.007Z,15.90
2022-09-12T01:07:04.789Z,15.90
2022-09-12T01:09:31.898Z,15.90
2022-09-12T01:11:59.130Z,15.80
2022-09-12T01:14:25.925Z,15.80
2022-09-12T01:16:52.881Z,15.80
2022-09-12T01:19:49.419Z,15.80
2022-09-12T01:22:46.453Z,15.70
2022-09-12T01:25:22.019Z,15.70
2022-09-12T01:28:16.317Z,15.70
2022-09-12T01:30:49.577Z,15.60
2022-09-12T01:33:27.494Z,15.60
2022-09-12T01:36:20.010Z,15.60
2022-09-12T01:39:12.579Z,15.60
2022-09-12T01:42:00.637Z,15.50
2022-09-12T01:44:35.317Z,15.50
2022-09-12T01:47:14.059Z,15.50
2022-09-12T01:49:57.914Z,15.50
2022-09-12T01:52:32.276Z,15.50
2022-09-12T01:55:11.420Z,15.40
2022-09-12T01:57:46.060Z,15.40
2022-09-12T02:00:13.759Z,15.30
2022-09-12T02:03:03.224Z,15.30
2022-09-12T02:05:34.736Z,15.30
2022-09-12T02:08:04.253Z,15.30
2022-09-12T02:10:34.845Z,15.20
2022-09-12T02:13:17.366Z,15.30
2022-09-12T02:15:49.402Z,15.20
2022-09-12T02:18:18.539Z,15.20
2022-09-12T02:20:48.944Z,15.20
2022-09-12T02:23:24.018Z,15.20
2022-09-12T02:25:56.259Z,15.20
2022-09-12T02:28:31.024Z,15.10
2022-09-12T02:31:30.006Z,15.10
2022-09-12T02:34:22.351Z,15.10
2022-09-12T02:37:15.436Z,15.10
2022-09-12T02:39:45.123Z,15.10
2022-09-12T02:42:13.422Z,15.10
2022-09-12T02:44:40.775Z,15.10
2022-09-12T02:47:17.017Z,15.00
2022-09-12T02:49:44.155Z,15.00
2022-09-12T02:52:13.275Z,15.00
2022-09-12T02:54:40.190Z,15.00
2022-09-12T02:57:22.815Z,15.00
2022-09-12T02:59:52.381Z,15.00
2022-09-12T03:02:44.099Z,15.00
2022-09-12T03:05:21.731Z,15.00
2022-09-12T03:08:07.133Z,14.90
2022-09-12T03:10:36.925Z,14.90
2022-09-12T03:13:28.903Z,14.90
2022-09-12T03:16:12.237Z,14.90
2022-09-12T03:18:50.202Z,14.90
2022-09-12T03:21:16.802Z,14.90
2022-09-12T03:23:59.874Z,14.90
2022-09-12T03:26:34.950Z,14.90
2022-09-12T03:29:04.032Z,14.90
2022-09-12T03:31:31.694Z,14.90
2022-09-12T03:34:00.127Z,14.90
2022-09-12T03:36:29.255Z,14.90
2022-09-12T03:38:56.552Z,14.80
2022-09-12T03:41:23.222Z,14.80
2022-09-12T03:43:49.923Z,14.80
2022-09-12T03:46:16.635Z,14.80
2022-09-12T03:48:43.299Z,14.80
2022-09-12T03:51:10.778Z,14.80
2022-09-12T03:53:37.613Z,14.70
2022-09-12T03:56:12.349Z,14.70
2022-09-12T03:58:39.452Z,14.70
2022-09-12T04:01:12.601Z,14.70
2022-09-12T04:03:44.266Z,14.70
2022-09-12T04:06:13.865Z,14.60
2022-09-12T04:08:41.311Z,14.60
2022-09-12T04:11:14.160Z,14.60
2022-09-12T04:13:42.558Z,14.60
2022-09-12T04:16:10.304Z,14.70
2022-09-12T04:18:37.663Z,14.60
2022-09-12T04:21:06.200Z,14.70
2022-09-12T04:23:33.027Z,14.70
2022-09-12T04:26:01.574Z,14.70
2022-09-12T04:28:32.550Z,14.70
2022-09-12T04:31:04.937Z,14.70
2022-09-12T04:33:31.857Z,14.70
2022-09-12T04:36:07.593Z,14.70
2022-09-12T04:38:35.731Z,14.60
2022-09-12T04:41:11.126Z,14.60
2022-09-12T04:43:37.823Z,14.60
2022-09-12T04:46:09.177Z,14.60
2022-09-12T04:48:36.552Z,14.60
2022-09-12T04:51:18.333Z,14.50
2022-09-12T04:53:49.769Z,14.50
2022-09-12T04:56:16.863Z,14.50
2022-09-12T04:58:43.661Z,14.50
2022-09-12T05:01:12.984Z,14.50
2022-09-12T05:03:43.155Z,14.50
2022-09-12T05:06:12.454Z,14.50
2022-09-12T05:08:39.161Z,14.40
2022-09-12T05:11:08.057Z,14.50
2022-09-12T05:13:35.134Z,14.50
2022-09-12T05:16:03.745Z,14.40
2022-09-12T05:18:32.575Z,14.40
2022-09-12T05:21:00.738Z,14.40
2022-09-12T05:23:28.731Z,14.50
2022-09-12T05:25:57.944Z,14.40
2022-09-12T05:28:28.555Z,14.40
2022-09-12T05:31:11.363Z,14.50
2022-09-12T05:33:39.595Z,14.50
2022-09-12T05:36:09.351Z,14.50
2022-09-12T05:38:36.354Z,14.60
2022-09-12T05:41:17.705Z,14.60
2022-09-12T05:43:47.586Z,14.60
2022-09-12T05:46:19.550Z,14.70
2022-09-12T05:48:47.765Z,14.70
2022-09-12T05:51:20.989Z,14.70
2022-09-12T05:53:52.742Z,14.70
2022-09-12T05:56:25.323Z,14.80
2022-09-12T05:58:56.433Z,14.80
2022-09-12T06:01:23.386Z,14.90
2022-09-12T06:03:52.822Z,14.90
2022-09-12T06:06:21.604Z,14.90
2022-09-12T06:08:50.506Z,15.00
2022-09-12T06:11:20.818Z,15.00
2022-09-12T06:13:47.911Z,15.00
2022-09-12T06:16:16.834Z,15.00
2022-09-12T06:18:57.752Z,15.10
2022-09-12T06:21:26.562Z,15.10
2022-09-12T06:23:56.119Z,15.20
2022-09-12T06:26:25.608Z,15.20
2022-09-12T06:28:54.566Z,15.20
2022-09-12T06:31:27.871Z,15.30
2022-09-12T06:33:56.083Z,15.30
2022-09-12T06:36:26.041Z,15.40
2022-09-12T06:38:57.851Z,15.40
2022-09-12T06:41:25.521Z,15.50
2022-09-12T06:43:53.197Z,15.60
2022-09-12T06:46:20.481Z,15.60
2022-09-12T06:48:47.366Z,15.60
2022-09-12T06:51:16.128Z,15.70
2022-09-12T06:53:44.515Z,15.80
2022-09-12T06:56:15.267Z,15.80
2022-09-12T06:58:43.146Z,15.90
2022-09-12T07:01:13.279Z,16.00
2022-09-12T07:03:40.978Z,16.00
2022-09-12T07:06:10.948Z,16.10
2022-09-12T07:08:39.202Z,16.20
2022-09-12T07:11:10.378Z,16.20
2022-09-12T07:13:37.690Z,16.30
2022-09-12T07:16:05.574Z,16.30
2022-09-12T07:18:35.804Z,16.40
2022-09-12T07:21:03.733Z,16.40
2022-09-12T07:23:30.674Z,16.50
2022-09-12T07:26:00.131Z,16.50
2022-09-12T07:28:32.239Z,16.50
2022-09-12T07:31:05.195Z,16.60
2022-09-12T07:33:31.920Z,16.60
2022-09-12T07:36:06.995Z,16.70
2022-09-12T07:38:33.673Z,16.80
2022-09-12T07:41:01.672Z,16.80
2022-09-12T07:43:28.403Z,16.90
2022-09-12T07:45:58.247Z,17.00
2022-09-12T07:48:25.117Z,17.10
2022-09-12T07:51:02.238Z,17.20
2022-09-12T07:53:36.992Z,17.20
2022-09-12T07:56:05.493Z,17.30
2022-09-12T07:58:34.456Z,17.40
2022-09-12T08:01:19.337Z,17.50
2022-09-12T08:03:48.540Z,17.60
2022-09-12T08:06:30.255Z,17.60
2022-09-12T08:08:58.185Z,17.80
2022-09-12T08:11:28.049Z,17.80
2022-09-12T08:13:57.186Z,17.80
2022-09-12T08:16:29.546Z,17.90
2022-09-12T08:18:56.849Z,18.00
2022-09-12T08:21:26.156Z,18.00
2022-09-12T08:24:01.610Z,18.00
2022-09-12T08:26:28.985Z,18.00
2022-09-12T08:28:55.835Z,18.10
2022-09-12T08:31:24.513Z,18.10
2022-09-12T08:33:51.753Z,18.20
2022-09-12T08:36:24.285Z,18.20
2022-09-12T08:38:59.283Z,18.30
2022-09-12T08:41:41.281Z,18.30
2022-09-12T08:44:32.370Z,18.40
2022-09-12T08:47:27.403Z,18.40
2022-09-12T08:50:12.223Z,18.40
2022-09-12T08:52:53.670Z,18.60
2022-09-12T08:55:31.470Z,18.70
2022-09-12T08:58:00.755Z,18.80
2022-09-12T09:00:38.543Z,19.00
2022-09-12T09:03:26.859Z,19.10
2022-09-12T09:06:08.249Z,19.20
2022-09-12T09:08:43.583Z,19.40
2022-09-12T09:11:10.200Z,19.50
2022-09-12T09:14:07.853Z,19.70
2022-09-12T09:16:41.214Z,19.70
2022-09-12T09:19:37.536Z,19.90
2022-09-12T09:22:28.969Z,20.10
2022-09-12T09:25:01.378Z,20.10
2022-09-12T09:27:46.901Z,20.20
2022-09-12T09:30:16.894Z,20.40
2022-09-12T09:32:47.728Z,20.50
2022-09-12T09:35:24.912Z,20.60
2022-09-12T09:38:06.312Z,20.90
2022-09-12T09:40:59.935Z,21.10
2022-09-12T09:43:29.811Z,21.20
2022-09-12T09:45:58.329Z,21.30
2022-09-12T09:48:32.350Z,21.50
2022-09-12T09:51:02.098Z,21.50
2022-09-12T09:53:41.403Z,21.70
2022-09-12T09:56:31.517Z,21.90
2022-09-12T09:59:27.700Z,22.00
2022-09-12T10:02:03.663Z,22.10
2022-09-12T10:04:40.697Z,22.10
2022-09-12T10:07:18.806Z,22.20
2022-09-12T10:10:23.788Z,22.30
2022-09-12T10:12:51.292Z,22.50
2022-09-12T10:15:22.678Z,22.60
2022-09-12T10:17:51.079Z,22.70
2022-09-12T10:20:40.183Z,22.70
2022-09-12T10:23:37.720Z,22.60
2022-09-12T10:26:10.683Z,22.70
2022-09-12T10:28:43.442Z,22.90
2022-09-12T10:31:15.556Z,23.00
2022-09-12T10:33:53.787Z,23.10
2022-09-12T10:36:21.001Z,23.20
2022-09-12T10:39:01.010Z,23.20
2022-09-12T10:41:39.727Z,23.30
2022-09-12T10:44:19.052Z,23.40
2022-09-12T10:46:45.887Z,23.50
2022-09-12T10:49:14.667Z,23.50
2022-09-12T10:51:41.347Z,23.50
2022-09-12T10:54:11.253Z,23.60
2022-09-12T10:57:01.302Z,23.70
2022-09-12T10:59:31.215Z,23.90
2022-09-12T11:02:27.370Z,24.00
2022-09-12T11:05:08.841Z,24.00
2022-09-12T11:07:57.349Z,24.00
2022-09-12T11:10:59.403Z,24.10
2022-09-12T11:14:00.877Z,24.20
2022-09-12T11:16:44.151Z,24.10
2022-09-12T11:19:32.381Z,24.10
2022-09-12T11:22:02.138Z,24.10
2022-09-12T11:25:13.666Z,24.20
2022-09-12T11:27:58.399Z,24.20
2022-09-12T11:30:25.434Z,24.30
2022-09-12T11:33:10.654Z,24.20
2022-09-12T11:35:54.419Z,24.30
2022-09-12T11:38:49.538Z,24.40
2022-09-12T11:41:31.378Z,24.40
2022-09-12T11:44:18.981Z,24.50
2022-09-12T11:46:49.910Z,24.60
2022-09-12T11:49:35.588Z,24.60
2022-09-12T11:52:17.061Z,24.70
2022-09-12T11:55:17.189Z,24.80
2022-09-12T11:57:59.971Z,24.80
2022-09-12T12:00:41.178Z,24.80
2022-09-12T12:03:16.862Z,25.00
2022-09-12T12:05:57.814Z,25.20
2022-09-12T12:08:26.292Z,25.30
2022-09-12T12:11:00.729Z,25.50
2022-09-12T12:13:39.642Z,25.80
2022-09-12T12:16:29.809Z,26.00
2022-09-12T12:19:10.822Z,25.90
2022-09-12T12:21:49.794Z,26.00
2022-09-12T12:24:19.216Z,26.10
2022-09-12T12:26:59.842Z,26.20
2022-09-12T12:29:35.092Z,26.20
2022-09-12T12:32:04.670Z,26.30
2022-09-12T12:34:32.674Z,26.60
2022-09-12T12:37:19.411Z,26.90
2022-09-12T12:39:47.851Z,27.00
2022-09-12T12:42:33.296Z,27.10
2022-09-12T12:45:08.895Z,27.30
2022-09-12T12:47:38.545Z,27.20
2022-09-12T12:50:12.180Z,27.20
2022-09-12T12:53:06.933Z,27.40
2022-09-12T12:55:42.914Z,27.50
2022-09-12T12:58:31.325Z,27.70
2022-09-12T13:01:16.532Z,27.90
2022-09-12T13:04:04.619Z,27.90
2022-09-12T13:06:31.469Z,28.20
2022-09-12T13:09:19.161Z,28.20
2022-09-12T13:11:46.746Z,28.50
2022-09-12T13:14:37.491Z,28.90
2022-09-12T13:17:14.351Z,29.00
2022-09-12T13:19:41.579Z,29.40
2022-09-12T13:22:09.948Z,29.80
2022-09-12T13:24:54.499Z,30.10
2022-09-12T13:27:25.862Z,30.30
2022-09-12T13:30:15.421Z,30.50
2022-09-12T13:32:43.494Z,30.80
2022-09-12T13:35:38.525Z,30.80
2022-09-12T13:38:33.059Z,31.00
2022-09-12T13:41:25.209Z,31.20
2022-09-12T13:43:52.224Z,31.40
2022-09-12T13:46:30.384Z,31.30
2022-09-12T13:49:01.064Z,31.50
2022-09-12T13:51:31.104Z,31.70
2022-09-12T13:54:02.797Z,31.80
2022-09-12T13:56:29.897Z,31.90
2022-09-12T13:58:59.169Z,31.80
2022-09-12T14:01:39.303Z,31.80
2022-09-12T14:04:38.843Z,31.80
2022-09-12T14:07:20.338Z,31.90
2022-09-12T14:09:55.045Z,32.00
2022-09-12T14:12:30.260Z,31.50
2022-09-12T14:14:57.405Z,30.70
2022-09-12T14:17:24.189Z,29.90
2022-09-12T14:19:52.814Z,29.30
2022-09-12T14:22:19.647Z,28.90
2022-09-12T14:24:51.591Z,28.40
2022-09-12T14:27:28.771Z,28.10
2022-09-12T14:30:08.941Z,27.90
2022-09-12T14:32:36.407Z,27.70
2022-09-12T14:35:12.162Z,27.60
2022-09-12T14:37:39.577Z,27.50
2022-09-12T14:40:21.733Z,27.20
2022-09-12T14:42:50.765Z,27.00
2022-09-12T14:45:23.258Z,26.90
2022-09-12T14:47:52.839Z,26.90
2022-09-12T14:50:26.540Z,26.80
2022-09-12T14:53:11.157Z,26.80
2022-09-12T14:55:46.552Z,26.70
2022-09-12T14:58:26.180Z,26.60
2022-09-12T15:01:00.262Z,26.60
2022-09-12T15:03:35.107Z,26.60
2022-09-12T15:06:04.198Z,26.50
2022-09-12T15:08:32.108Z,26.40
2022-09-12T15:10:59.717Z,26.30
2022-09-12T15:13:28.568Z,26.30
2022-09-12T15:15:57.982Z,26.30
2022-09-12T15:18:29.236Z,26.20
2022-09-12T15:21:05.482Z,26.20
2022-09-12T15:23:41.627Z,26.20
2022-09-12T15:26:12.941Z,26.10
2022-09-12T15:28:39.866Z,26.10
2022-09-12T15:31:16.202Z,26.10
2022-09-12T15:33:42.958Z,26.10
2022-09-12T15:36:16.449Z,26.10
2022-09-12T15:38:44.006Z,26.10
2022-09-12T15:41:14.722Z,26.10
2022-09-12T15:43:41.581Z,26.00
2022-09-12T15:46:11.806Z,25.80
2022-09-12T15:48:39.104Z,25.90
2022-09-12T15:51:15.085Z,25.90
2022-09-12T15:53:42.626Z,25.80
2022-09-12T15:56:09.522Z,25.70
2022-09-12T15:58:36.601Z,25.70
2022-09-12T16:01:04.252Z,25.70
2022-09-12T16:03:31.045Z,25.60
2022-09-12T16:06:02.156Z,25.70
2022-09-12T16:08:31.470Z,25.70
2022-09-12T16:11:02.537Z,25.70
2022-09-12T16:13:29.525Z,25.70
2022-09-12T16:16:01.244Z,25.60
2022-09-12T16:18:29.225Z,25.60
2022-09-12T16:20:57.227Z,25.60
2022-09-12T16:23:24.945Z,25.60
2022-09-12T16:26:03.156Z,25.60
2022-09-12T16:28:30.863Z,25.60
2022-09-12T16:31:03.889Z,25.50
2022-09-12T16:33:31.598Z,25.50
2022-09-12T16:36:04.018Z,25.50
2022-09-12T16:38:32.333Z,25.40
2022-09-12T16:41:06.073Z,25.40
2022-09-12T16:43:34.311Z,25.30
2022-09-12T16:46:06.927Z,25.30
2022-09-12T16:48:34.263Z,25.30
2022-09-12T16:51:03.663Z,25.20
2022-09-12T16:53:34.914Z,25.20
2022-09-12T16:56:01.904Z,25.10
2022-09-12T16:58:31.845Z,25.10
2022-09-12T17:01:10.273Z,25.00
2022-09-12T17:03:37.311Z,25.00
2022-09-12T17:06:09.786Z,24.90
2022-09-12T17:08:41.390Z,24.90
2022-09-12T17:11:14.056Z,24.80
2022-09-12T17:14:03.144Z,24.80
2022-09-12T17:16:28.999Z,24.80
2022-09-12T17:18:56.020Z,24.70
2022-09-12T17:21:25.638Z,24.70
2022-09-12T17:23:52.547Z,24.60
2022-09-12T17:26:19.713Z,24.60
2022-09-12T17:28:47.059Z,24.50
2022-09-12T17:31:14.877Z,24.50
2022-09-12T17:33:42.304Z,24.40
2022-09-12T17:36:16.327Z,24.40
2022-09-12T17:38:45.440Z,24.30
2022-09-12T17:41:15.967Z,24.20
2022-09-12T17:43:50.845Z,24.20
2022-09-12T17:46:21.337Z,24.10
2022-09-12T17:48:56.451Z,24.00
2022-09-12T17:51:25.355Z,23.90
2022-09-12T17:54:08.231Z,23.90
2022-09-12T17:56:37.044Z,23.80
2022-09-12T17:59:06.682Z,23.80
2022-09-12T18:01:52.567Z,23.70
2022-09-12T18:04:20.041Z,23.70
2022-09-12T18:06:50.122Z,23.60
2022-09-12T18:09:19.684Z,23.50
2022-09-12T18:11:48.067Z,23.50
2022-09-12T18:14:17.140Z,23.40
2022-09-12T18:16:45.138Z,23.40
2022-09-12T18:19:12.208Z,23.30
2022-09-12T18:21:39.190Z,23.30
2022-09-12T18:24:06.374Z,23.20
2022-09-12T18:26:33.953Z,23.10
2022-09-12T18:29:00.718Z,23.10
2022-09-12T18:31:29.630Z,23.00
2022-09-12T18:33:59.707Z,23.00
2022-09-12T18:36:26.579Z,23.00
2022-09-12T18:38:53.304Z,22.90
2022-09-12T18:41:22.556Z,22.80
2022-09-12T18:43:53.358Z,22.80
2022-09-12T18:46:20.189Z,22.80
2022-09-12T18:48:47.255Z,22.70
2022-09-12T18:51:19.884Z,22.70
2022-09-12T18:53:56.046Z,22.60
2022-09-12T18:56:24.534Z,22.60
2022-09-12T18:58:53.402Z,22.60
2022-09-12T19:01:23.957Z,22.50
2022-09-12T19:03:50.998Z,22.50
2022-09-12T19:06:23.465Z,22.40
2022-09-12T19:08:52.769Z,22.40
2022-09-12T19:11:20.863Z,22.40
2022-09-12T19:13:50.609Z,22.30
2022-09-12T19:16:20.216Z,22.30
2022-09-12T19:18:49.558Z,22.20
2022-09-12T19:21:31.045Z,22.20
2022-09-12T19:24:06.904Z,22.10
2022-09-12T19:26:34.325Z,22.10
2022-09-12T19:29:02.846Z,22.00
2022-09-12T19:31:30.464Z,22.00
2022-09-12T19:34:06.111Z,22.00
2022-09-12T19:36:45.339Z,21.90
2022-09-12T19:39:14.099Z,21.90
2022-09-12T19:41:40.810Z,21.80
2022-09-12T19:44:07.657Z,21.80
2022-09-12T19:46:34.517Z,21.80
2022-09-12T19:49:01.350Z,21.70
2022-09-12T19:51:28.436Z,21.60
2022-09-12T19:53:55.342Z,21.60
2022-09-12T19:56:22.483Z,21.60
2022-09-12T19:58:55.762Z,21.60
2022-09-12T20:01:25.723Z,21.50
2022-09-12T20:03:55.369Z,21.50
2022-09-12T20:06:22.543Z,21.50
2022-09-12T20:08:49.915Z,21.40
2022-09-12T20:11:19.882Z,21.40
2022-09-12T20:13:47.654Z,21.40
2022-09-12T20:16:24.239Z,21.30
2022-09-12T20:18:56.173Z,21.30
2022-09-12T20:21:25.714Z,21.30
2022-09-12T20:23:52.611Z,21.20
2022-09-12T20:26:20.481Z,21.20
2022-09-12T20:28:47.621Z,21.20
2022-09-12T20:31:16.101Z,21.20
2022-09-12T20:33:43.981Z,21.10
2022-09-12T20:36:12.910Z,21.20
2022-09-12T20:38:40.274Z,21.10
2022-09-12T20:41:09.886Z,21.10
2022-09-12T20:43:38.691Z,21.00
2022-09-12T20:46:12.631Z,21.00
2022-09-12T20:48:39.890Z,21.00
2022-09-12T20:51:07.548Z,21.00
2022-09-12T20:53:35.510Z,20.90
2022-09-12T20:56:03.441Z,20.90
2022-09-12T20:58:30.400Z,20.90
2022-09-12T21:00:57.516Z,20.80
2022-09-12T21:03:25.492Z,20.80
2022-09-12T21:05:52.610Z,20.80
2022-09-12T21:08:19.340Z,20.80
2022-09-12T21:10:46.083Z,20.70
2022-09-12T21:13:13.793Z,20.70
2022-09-12T21:15:41.663Z,20.70
2022-09-12T21:18:08.532Z,20.60
2022-09-12T21:20:35.349Z,20.60
2022-09-12T21:23:02.327Z,20.60
2022-09-12T21:25:29.921Z,20.60
2022-09-12T21:27:56.824Z,20.60
2022-09-12T21:30:23.829Z,20.50
2022-09-12T21:32:50.727Z,20.50
2022-09-12T21:35:18.016Z,20.50
2022-09-12T21:37:44.821Z,20.50
2022-09-12T21:40:11.667Z,20.40
2022-09-12T21:42:38.382Z,20.40
2022-09-12T21:45:06.247Z,20.40
2022-09-12T21:47:33.057Z,20.40
2022-09-12T21:49:59.782Z,20.30
2022-09-12T21:52:27.595Z,20.30
2022-09-12T21:54:54.331Z,20.30
2022-09-12T21:57:21.407Z,20.30
2022-09-12T21:59:48.107Z,20.20
2022-09-12T22:02:15.940Z,20.20
2022-09-12T22:04:42.956Z,20.20
2022-09-12T22:07:09.817Z,20.10
2022-09-12T22:09:36.536Z,20.10
2022-09-12T22:12:03.393Z,20.10
2022-09-12T22:14:30.085Z,20.10
2022-09-12T22:16:56.949Z,20.00
2022-09-12T22:19:23.801Z,20.00
2022-09-12T22:22:09.351Z,20.00
2022-09-12T22:24:36.178Z,20.00
2022-09-12T22:27:05.435Z,20.00
2022-09-12T22:29:32.825Z,19.90
2022-09-12T22:32:00.202Z,19.90
2022-09-12T22:34:28.473Z,19.90
2022-09-12T22:36:55.589Z,19.90
2022-09-12T22:39:23.002Z,19.90
2022-09-12T22:41:50.141Z,19.90
2022-09-12T22:44:17.754Z,19.80
2022-09-12T22:46:45.038Z,19.80
2022-09-12T22:49:11.861Z,19.70
2022-09-12T22:51:39.029Z,19.70
2022-09-12T22:54:06.891Z,19.70
2022-09-12T22:56:33.823Z,19.70
2022-09-12T22:59:01.026Z,19.70
2022-09-12T23:01:27.853Z,19.70
2022-09-12T23:03:54.582Z,19.60
2022-09-12T23:06:21.299Z,19.60
2022-09-12T23:08:48.053Z,19.60
2022-09-12T23:11:17.015Z,19.60
2022-09-12T23:13:46.133Z,19.50
2022-09-12T23:16:18.640Z,19.50
2022-09-12T23:18:45.544Z,19.50
2022-09-12T23:21:13.302Z,19.40
2022-09-12T23:23:39.972Z,19.40
2022-09-12T23:26:11.252Z,19.40
2022-09-12T23:28:39.490Z,19.40
2022-09-12T23:31:08.619Z,19.40
2022-09-12T23:33:36.270Z,19.40
2022-09-12T23:36:06.365Z,19.30
2022-09-12T23:38:36.222Z,19.30
2022-09-12T23:41:04.086Z,19.30
2022-09-12T23:43:31.384Z,19.30
2022-09-12T23:45:58.919Z,19.30
2022-09-12T23:48:26.364Z,19.30
2022-09-12T23:50:53.674Z,19.30
2022-09-12T23:53:21.599Z,19.30
2022-09-12T23:55:49.005Z,19.20
2022-09-12T23:58:16.766Z,19.30
